Time;durP1;ratioP1;P1;durP2;ratioP2;P2;SDS_P1;SDS_P2;PMS_P1;PMS_P2;Temp;Humidity;BMP_temperature;BMP_pressure;BME280_temperature;BME280_humidity;BME280_pressure;Samples;Min_cycle;Max_cycle;Signal;HPM_P1;HPM_P2
2022/09/30 00:01:26;;;;;;;7.82;6.90;;;8.40;99.90;;;;;;4999458;28;20478;-60
2022/09/30 00:03:53;;;;;;;7.18;6.47;;;8.40;99.90;;;;;;4999468;28;20033;-61
2022/09/30 00:06:19;;;;;;;7.97;7.22;;;8.40;99.90;;;;;;4996093;28;20026;-60
2022/09/30 00:08:45;;;;;;;10.10;7.57;;;8.30;99.90;;;;;;4998258;28;20490;-60
2022/09/30 00:11:17;;;;;;;8.25;7.28;;;8.30;99.90;;;;;;4998949;28;20120;-61
2022/09/30 00:13:45;;;;;;;9.00;7.40;;;8.30;99.90;;;;;;5003859;28;20026;-60
2022/09/30 00:16:12;;;;;;;8.60;7.72;;;8.30;99.90;;;;;;4998915;28;20049;-61
2022/09/30 00:18:39;;;;;;;10.43;9.27;;;8.30;99.90;;;;;;5002566;28;20069;-60
2022/09/30 00:21:05;;;;;;;9.13;8.25;;;8.20;99.90;;;;;;5001969;28;20057;-60
2022/09/30 00:23:31;;;;;;;16.23;9.00;;;8.20;99.90;;;;;;4995623;28;20378;-61
2022/09/30 00:25:59;;;;;;;8.52;7.82;;;8.20;99.90;;;;;;4999388;28;20022;-58
2022/09/30 00:28:25;;;;;;;8.52;7.78;;;8.20;99.90;;;;;;4998352;28;20494;-60
2022/09/30 00:30:51;;;;;;;9.93;9.13;;;8.20;99.90;;;;;;4999270;28;20030;-60
2022/09/30 00:33:17;;;;;;;10.15;8.85;;;8.20;99.90;;;;;;4998093;28;20021;-60
2022/09/30 00:35:42;;;;;;;10.85;9.07;;;8.20;99.90;;;;;;5000292;28;20053;-60
2022/09/30 00:38:08;;;;;;;9.25;8.20;;;8.20;99.90;;;;;;5001371;28;20026;-60
2022/09/30 00:40:38;;;;;;;8.23;7.32;;;8.20;99.90;;;;;;4999971;28;20118;-61
2022/09/30 00:43:11;;;;;;;6.53;5.93;;;8.20;99.90;;;;;;4999411;28;20022;-60
2022/09/30 00:45:37;;;;;;;6.55;6.05;;;8.20;99.90;;;;;;4999738;28;20034;-60
2022/09/30 00:48:09;;;;;;;9.70;6.65;;;8.20;99.90;;;;;;4999186;28;20087;-60
2022/09/30 00:50:37;;;;;;;6.90;6.30;;;8.20;99.90;;;;;;4999683;28;20102;-59
2022/09/30 00:53:15;;;;;;;7.40;6.72;;;8.10;99.90;;;;;;4998918;28;20140;-60
2022/09/30 00:55:47;;;;;;;13.23;7.40;;;8.20;99.90;;;;;;4998949;28;20542;-60
2022/09/30 00:58:29;;;;;;;10.65;8.65;;;8.10;99.90;;;;;;4997537;28;20754;-60
2022/09/30 01:00:54;;;;;;;;;;;8.10;99.90;;;;;;4996631;28;20069;-60
2022/09/30 01:03:21;;;;;;;9.90;8.43;;;8.10;99.90;;;;;;4996231;28;19909;-60
2022/09/30 01:05:49;;;;;;;11.20;8.23;;;8.10;99.90;;;;;;5000008;28;20081;-60
2022/09/30 01:08:17;;;;;;;11.55;7.97;;;8.10;99.90;;;;;;4997997;28;20034;-60
2022/09/30 01:10:43;;;;;;;13.27;8.07;;;8.10;99.90;;;;;;4997276;28;20141;-59
2022/09/30 01:13:09;;;;;;;26.75;8.95;;;8.10;99.90;;;;;;4994217;28;20458;-60
2022/09/30 01:16:14;;;;;;;31.58;9.50;;;8.10;99.90;;;;;;4997799;28;20062;-60
2022/09/30 01:18:58;;;;;;;51.92;10.18;;;8.00;99.90;;;;;;5001289;28;20133;-60
2022/09/30 01:21:57;;;;;;;19.33;8.63;;;8.00;99.90;;;;;;5000109;28;20050;-60
2022/09/30 01:24:44;;;;;;;13.32;7.38;;;8.00;99.90;;;;;;4987170;28;20044;-60
2022/09/30 01:27:47;;;;;;;19.50;8.95;;;8.00;99.90;;;;;;4996323;28;20129;-60
2022/09/30 01:30:38;;;;;;;39.97;9.07;;;8.00;99.90;;;;;;4995896;28;20045;-60
2022/09/30 01:33:34;;;;;;;59.57;9.03;;;7.90;99.90;;;;;;4999540;28;20124;-60
2022/09/30 01:36:24;;;;;;;83.22;8.20;;;7.80;99.90;;;;;;4997697;28;20046;-59
2022/09/30 01:39:15;;;;;;;65.53;8.80;;;7.80;99.90;;;;;;4998289;28;20773;-59
2022/09/30 01:41:51;;;;;;;;;;;7.80;99.90;;;;;;4976123;28;20039;-60
2022/09/30 01:44:41;;;;;;;142.65;10.77;;;7.70;99.90;;;;;;4980411;28;20297;-60
2022/09/30 01:47:29;;;;;;;79.57;8.95;;;7.70;99.90;;;;;;4980569;28;20030;-60
2022/09/30 01:50:11;;;;;;;61.38;8.20;;;7.70;99.90;;;;;;4976980;28;20033;-60
2022/09/30 01:52:54;;;;;;;183.30;12.35;;;7.60;99.90;;;;;;4977725;28;20522;-60
2022/09/30 01:55:29;;;;;;;68.70;9.10;;;7.60;99.90;;;;;;4978843;28;20031;-60
2022/09/30 01:58:10;;;;;;;30.83;8.27;;;7.60;99.90;;;;;;4979068;28;20031;-60
2022/09/30 02:00:39;;;;;;;78.15;9.48;;;7.50;99.90;;;;;;4974775;28;20034;-60
2022/09/30 02:03:15;;;;;;;45.42;8.65;;;7.50;99.90;;;;;;4976399;28;20034;-60
2022/09/30 02:05:54;;;;;;;57.58;10.13;;;7.50;99.90;;;;;;4977863;28;20499;-61
2022/09/30 02:08:29;;;;;;;40.28;10.13;;;7.60;99.90;;;;;;4977901;28;20038;-60
2022/09/30 02:11:03;;;;;;;40.78;8.07;;;7.60;99.90;;;;;;4986291;28;20022;-60
2022/09/30 02:13:41;;;;;;;21.30;8.35;;;7.60;99.90;;;;;;4997925;28;20022;-60
2022/09/30 02:16:13;;;;;;;65.97;10.02;;;7.60;99.90;;;;;;4996808;28;20553;-60
2022/09/30 02:18:43;;;;;;;44.30;8.50;;;7.60;99.90;;;;;;4997148;28;20064;-60
2022/09/30 02:21:12;;;;;;;55.38;8.45;;;7.60;99.90;;;;;;4996577;28;20026;-61
2022/09/30 02:23:42;;;;;;;24.25;7.38;;;7.60;99.90;;;;;;4996509;28;20037;-60
2022/09/30 02:26:12;;;;;;;58.30;8.00;;;7.50;99.90;;;;;;4996283;28;20031;-60
2022/09/30 02:28:43;;;;;;;49.50;7.88;;;7.50;99.90;;;;;;4997815;28;20030;-60
2022/09/30 02:31:11;;;;;;;44.17;6.93;;;7.50;99.90;;;;;;4999314;28;20994;-61
2022/09/30 02:34:01;;;;;;;109.65;8.43;;;7.50;99.90;;;;;;4995020;28;20041;-59
2022/09/30 02:36:55;;;;;;;93.43;8.43;;;7.50;99.90;;;;;;4994470;28;20039;-59
2022/09/30 02:39:35;;;;;;;76.50;7.50;;;7.50;99.90;;;;;;4993938;28;20049;-60
2022/09/30 02:42:09;;;;;;;126.63;8.17;;;7.40;99.90;;;;;;4995836;28;20026;-60
2022/09/30 02:44:35;;;;;;;144.75;8.55;;;7.40;99.90;;;;;;4992104;28;20276;-60
2022/09/30 02:47:55;;;;;;;38.88;6.40;;;7.40;99.90;;;;;;4995175;28;20059;-59
2022/09/30 02:51:00;;;;;;;53.13;5.68;;;7.30;99.90;;;;;;4992877;28;20029;-60
2022/09/30 02:53:34;;;;;;;85.10;6.75;;;7.30;99.90;;;;;;4954180;28;20081;-60
2022/09/30 02:56:05;;;;;;;76.90;6.95;;;7.30;99.90;;;;;;4976225;28;20035;-59
2022/09/30 02:58:35;;;;;;;81.30;6.65;;;7.20;99.90;;;;;;4972928;28;20042;-60
2022/09/30 03:01:02;;;;;;;134.38;8.65;;;7.20;99.90;;;;;;4971476;28;20034;-59
2022/09/30 03:03:48;;;;;;;69.60;6.63;;;7.20;99.90;;;;;;4978482;28;20033;-59
2022/09/30 03:06:15;;;;;;;117.75;7.38;;;7.20;99.90;;;;;;4972048;28;20049;-60
2022/09/30 03:08:41;;;;;;;90.78;7.90;;;7.10;99.90;;;;;;4978536;28;20096;-60
2022/09/30 03:11:10;;;;;;;126.75;7.88;;;7.20;99.90;;;;;;4972773;28;20506;-60
2022/09/30 03:13:48;;;;;;;125.35;6.68;;;7.10;99.90;;;;;;4973353;28;20035;-59
2022/09/30 03:16:43;;;;;;;96.22;6.82;;;7.10;99.90;;;;;;4974161;28;20034;-59
2022/09/30 03:19:35;;;;;;;110.47;8.07;;;7.10;99.90;;;;;;4973606;28;20058;-60
2022/09/30 03:22:42;;;;;;;82.82;9.65;;;7.10;99.90;;;;;;4978161;28;20038;-60
2022/09/30 03:25:17;;;;;;;64.80;6.97;;;7.10;99.90;;;;;;4975574;28;20026;-62
2022/09/30 03:27:52;;;;;;;62.92;6.85;;;7.10;99.90;;;;;;4973784;28;20046;-60
2022/09/30 03:30:20;;;;;;;31.95;6.50;;;7.10;99.90;;;;;;4986417;28;20124;-60
2022/09/30 03:33:04;;;;;;;78.18;8.35;;;7.10;99.90;;;;;;4998416;28;20026;-60
2022/09/30 03:35:42;;;;;;;56.30;6.50;;;7.10;99.90;;;;;;4997495;28;20026;-59
2022/09/30 03:38:36;;;;;;;38.25;5.70;;;7.10;99.90;;;;;;4994097;28;20053;-59
2022/09/30 03:41:35;;;;;;;13.15;5.07;;;7.10;99.90;;;;;;4991072;28;20436;-60
2022/09/30 03:44:08;;;;;;;13.25;4.35;;;7.10;99.90;;;;;;4998379;28;20114;-59
2022/09/30 03:46:49;;;;;;;22.48;5.28;;;7.10;99.90;;;;;;4994344;28;20676;-60
2022/09/30 03:49:21;;;;;;;43.72;5.38;;;7.00;99.90;;;;;;4994762;28;20150;-60
2022/09/30 03:51:46;;;;;;;33.33;4.50;;;7.10;99.90;;;;;;5001062;28;20060;-60
2022/09/30 03:54:13;;;;;;;72.18;5.85;;;7.00;99.90;;;;;;4994710;28;20183;-60
2022/09/30 03:56:42;;;;;;;41.47;6.40;;;7.00;99.90;;;;;;4997800;28;20030;-60
2022/09/30 03:59:23;;;;;;;14.65;5.10;;;7.00;99.90;;;;;;4999753;28;20026;-60
2022/09/30 04:01:49;;;;;;;40.60;6.25;;;7.00;99.90;;;;;;4994555;28;20022;-60
2022/09/30 04:04:14;;;;;;;21.88;8.55;;;7.00;99.90;;;;;;5000373;28;20046;-60
2022/09/30 04:06:40;;;;;;;20.33;6.90;;;7.00;99.90;;;;;;5000810;28;20490;-60
2022/09/30 04:09:06;;;;;;;19.98;5.65;;;7.00;99.90;;;;;;4998328;28;20022;-59
2022/09/30 04:11:31;;;;;;;14.93;5.63;;;6.90;99.90;;;;;;5001712;28;20479;-60
2022/09/30 04:13:57;;;;;;;44.28;5.90;;;7.00;99.90;;;;;;4995806;28;20040;-61
2022/09/30 04:16:23;;;;;;;18.73;5.97;;;7.00;99.90;;;;;;5001832;28;20080;-60
2022/09/30 04:18:49;;;;;;;46.80;7.43;;;7.00;99.90;;;;;;4999162;28;20023;-58
2022/09/30 04:21:15;;;;;;;107.53;8.85;;;7.00;99.90;;;;;;5002203;28;20022;-60
2022/09/30 04:23:42;;;;;;;50.88;7.40;;;7.00;99.90;;;;;;4996552;28;20041;-60
2022/09/30 04:26:11;;;;;;;11.05;6.05;;;7.00;99.90;;;;;;4998425;28;20105;-60
2022/09/30 04:28:37;;;;;;;90.20;8.23;;;7.00;99.90;;;;;;5003377;28;20030;-60
2022/09/30 04:31:05;;;;;;;18.90;6.10;;;7.00;99.90;;;;;;4997118;28;20034;-60
2022/09/30 04:33:31;;;;;;;77.55;7.22;;;6.90;99.90;;;;;;5001820;28;20014;-59
2022/09/30 04:35:58;;;;;;;36.95;7.10;;;7.00;99.90;;;;;;4997559;28;20105;-59
2022/09/30 04:38:25;;;;;;;34.42;6.78;;;6.90;99.90;;;;;;4999024;28;20394;-60
2022/09/30 04:40:51;;;;;;;39.47;6.68;;;6.90;99.90;;;;;;4999021;28;20034;-59
2022/09/30 04:43:18;;;;;;;46.42;6.90;;;6.90;99.90;;;;;;4998229;28;20097;-60
2022/09/30 04:45:45;;;;;;;60.63;6.72;;;6.90;99.90;;;;;;4995724;28;20030;-60
2022/09/30 04:48:12;;;;;;;18.02;6.93;;;6.90;99.90;;;;;;5002839;28;20037;-60
2022/09/30 04:50:38;;;;;;;27.88;7.40;;;6.90;99.90;;;;;;4997361;28;20045;-60
2022/09/30 04:53:04;;;;;;;110.25;8.32;;;7.00;99.90;;;;;;4998527;28;20030;-60
2022/09/30 04:55:30;;;;;;;66.00;6.53;;;7.00;99.90;;;;;;4999124;28;20045;-59
2022/09/30 04:57:55;;;;;;;132.88;8.63;;;6.90;99.90;;;;;;4998602;28;20023;-60
2022/09/30 05:00:21;;;;;;;44.90;7.65;;;6.90;99.90;;;;;;4995024;28;20505;-60
2022/09/30 05:02:47;;;;;;;305.20;13.88;;;6.80;99.90;;;;;;4997108;28;20107;-60
2022/09/30 05:05:13;;;;;;;253.98;12.95;;;6.80;99.90;;;;;;4997449;28;20030;-60
2022/09/30 05:07:39;;;;;;;406.50;17.52;;;6.70;99.90;;;;;;4995008;28;20081;-59
2022/09/30 05:10:06;;;;;;;53.50;6.47;;;6.70;99.90;;;;;;4995180;28;20113;-59
2022/09/30 05:12:33;;;;;;;283.15;12.73;;;6.70;99.90;;;;;;4998381;28;20026;-59
2022/09/30 05:14:59;;;;;;;170.63;10.38;;;6.70;99.90;;;;;;4996331;28;20076;-59
2022/09/30 05:17:24;;;;;;;215.27;11.20;;;6.70;99.90;;;;;;4999115;28;20037;-61
2022/09/30 05:19:50;;;;;;;201.02;10.82;;;6.60;99.90;;;;;;4996891;28;20065;-60
2022/09/30 05:22:16;;;;;;;227.35;11.85;;;6.60;99.90;;;;;;4995793;28;20026;-60
2022/09/30 05:24:42;;;;;;;226.93;11.02;;;6.60;99.90;;;;;;4998767;28;20125;-60
2022/09/30 05:27:07;;;;;;;132.57;8.20;;;6.60;99.90;;;;;;4996539;28;20037;-59
2022/09/30 05:29:33;;;;;;;138.90;8.20;;;6.60;99.90;;;;;;4998520;28;20048;-60
2022/09/30 05:31:59;;;;;;;46.30;5.85;;;6.60;99.90;;;;;;4995272;28;20038;-60
2022/09/30 05:34:24;;;;;;;124.80;8.23;;;6.70;99.90;;;;;;4995250;28;20033;-59
2022/09/30 05:36:50;;;;;;;102.53;7.00;;;6.70;99.90;;;;;;4994470;28;20029;-61
2022/09/30 05:39:16;;;;;;;132.93;8.88;;;6.80;99.90;;;;;;4999012;28;20500;-60
2022/09/30 05:41:41;;;;;;;145.98;9.15;;;6.80;99.90;;;;;;5004263;28;20050;-60
2022/09/30 05:44:08;;;;;;;171.18;10.13;;;6.80;99.90;;;;;;4986510;28;20030;-59
2022/09/30 05:46:34;;;;;;;98.00;8.13;;;6.80;99.90;;;;;;4995627;28;20030;-60
2022/09/30 05:48:59;;;;;;;246.15;11.57;;;6.80;99.90;;;;;;4995958;28;20363;-60
2022/09/30 05:51:25;;;;;;;146.32;8.80;;;6.80;99.90;;;;;;4999624;28;20042;-60
2022/09/30 05:53:51;;;;;;;178.32;9.85;;;6.80;99.90;;;;;;5001230;28;20033;-60
2022/09/30 05:56:17;;;;;;;116.53;7.45;;;6.70;99.90;;;;;;4997202;28;20420;-60
2022/09/30 05:58:43;;;;;;;161.32;8.77;;;6.70;99.90;;;;;;4999033;28;20038;-60
2022/09/30 06:01:13;;;;;;;105.07;6.75;;;6.70;99.90;;;;;;4996339;28;20546;-61
2022/09/30 06:03:40;;;;;;;60.17;5.97;;;6.80;99.90;;;;;;4998538;28;20022;-60
2022/09/30 06:06:06;;;;;;;142.15;8.27;;;6.80;99.90;;;;;;4993065;28;20089;-60
2022/09/30 06:08:32;;;;;;;41.33;5.68;;;6.90;99.90;;;;;;4997292;28;20061;-60
2022/09/30 06:10:58;;;;;;;58.05;5.70;;;7.00;99.90;;;;;;5001192;28;20054;-60
2022/09/30 06:13:24;;;;;;;56.55;5.85;;;7.00;99.90;;;;;;4997955;28;20034;-58
2022/09/30 06:16:00;;;;;;;23.88;5.95;;;7.10;99.90;;;;;;4995610;28;20080;-59
2022/09/30 06:18:27;;;;;;;115.15;10.80;;;7.20;99.90;;;;;;4996705;28;20058;-60
2022/09/30 06:21:01;;;;;;;128.88;9.23;;;7.30;99.90;;;;;;4994933;28;20109;-60
2022/09/30 06:23:27;;;;;;;71.68;8.00;;;7.30;99.90;;;;;;4994057;28;20073;-59
2022/09/30 06:25:54;;;;;;;110.22;8.48;;;7.40;99.90;;;;;;4994141;28;20041;-60
2022/09/30 06:28:21;;;;;;;75.68;10.27;;;7.50;99.90;;;;;;4998455;28;20030;-60
2022/09/30 06:30:46;;;;;;;138.52;11.13;;;7.60;99.90;;;;;;4997718;28;20514;-61
2022/09/30 06:33:13;;;;;;;32.10;7.38;;;7.60;99.90;;;;;;4997930;28;20069;-60
2022/09/30 06:35:42;;;;;;;63.28;9.50;;;7.70;99.90;;;;;;4995118;28;20034;-60
2022/09/30 06:38:14;;;;;;;117.45;6.78;;;7.80;99.90;;;;;;4996670;28;20034;-60
2022/09/30 06:40:40;;;;;;;133.10;8.32;;;7.80;99.90;;;;;;4999614;28;20089;-60
2022/09/30 06:43:06;;;;;;;51.20;6.38;;;7.90;99.90;;;;;;4995202;28;20030;-60
2022/09/30 06:45:34;;;;;;;215.07;13.50;;;7.90;99.90;;;;;;4998303;28;20541;-59
2022/09/30 06:48:02;;;;;;;112.65;9.38;;;8.00;99.90;;;;;;4991999;28;20035;-59
2022/09/30 06:50:30;;;;;;;100.03;8.80;;;8.00;99.90;;;;;;4996288;28;20022;-60
2022/09/30 06:53:01;;;;;;;148.93;8.18;;;8.10;99.90;;;;;;5001048;28;20019;-60
2022/09/30 06:55:28;;;;;;;138.25;9.10;;;8.10;99.90;;;;;;4996632;28;20026;-60
2022/09/30 06:57:54;;;;;;;178.02;8.65;;;8.10;99.90;;;;;;4996822;28;20030;-60
2022/09/30 07:00:21;;;;;;;114.00;7.20;;;8.00;99.90;;;;;;4996766;28;20018;-60
2022/09/30 07:02:50;;;;;;;25.73;4.63;;;8.00;99.90;;;;;;4996852;28;20037;-60
2022/09/30 07:05:16;;;;;;;33.05;5.35;;;8.10;99.90;;;;;;4999285;28;20081;-60
2022/09/30 07:07:42;;;;;;;48.75;5.63;;;8.20;99.90;;;;;;4999056;28;20498;-60
2022/09/30 07:10:09;;;;;;;129.90;8.13;;;8.30;99.90;;;;;;4994201;28;20026;-60
2022/09/30 07:12:35;;;;;;;114.95;7.82;;;8.30;99.90;;;;;;4999201;28;20053;-60
2022/09/30 07:15:00;;;;;;;97.10;8.07;;;8.40;99.90;;;;;;4995660;28;20070;-60
2022/09/30 07:17:27;;;;;;;130.27;8.07;;;8.50;99.90;;;;;;4996836;28;20402;-60
2022/09/30 07:19:53;;;;;;;85.07;7.78;;;8.50;99.90;;;;;;4993471;28;20050;-60
2022/09/30 07:22:26;;;;;;;100.28;7.82;;;8.60;99.90;;;;;;4992936;28;20431;-60
2022/09/30 07:24:52;;;;;;;104.03;7.43;;;8.70;99.90;;;;;;4998790;28;20470;-60
2022/09/30 07:27:17;;;;;;;66.47;6.70;;;8.80;99.90;;;;;;4996492;28;20045;-60
2022/09/30 07:29:44;;;;;;;75.10;6.60;;;8.80;99.90;;;;;;4998308;28;20046;-60
2022/09/30 07:32:11;;;;;;;95.10;7.47;;;8.80;99.90;;;;;;4995985;28;20050;-60
2022/09/30 07:34:42;;;;;;;70.05;7.45;;;8.80;99.90;;;;;;4995945;28;20027;-60
2022/09/30 07:37:13;;;;;;;90.38;8.50;;;8.90;99.90;;;;;;4993524;28;20549;-60
2022/09/30 07:39:41;;;;;;;54.20;5.40;;;8.90;99.90;;;;;;5000483;28;20018;-60
2022/09/30 07:42:06;;;;;;;78.18;5.55;;;9.00;99.90;;;;;;4999527;28;20054;-60
2022/09/30 07:44:33;;;;;;;56.25;5.22;;;9.00;99.90;;;;;;4996861;28;20490;-59
2022/09/30 07:47:00;;;;;;;25.33;5.25;;;9.10;99.90;;;;;;5000278;28;20022;-59
2022/09/30 07:49:26;;;;;;;69.93;6.43;;;9.20;99.90;;;;;;4999215;28;20099;-60
2022/09/30 07:51:57;;;;;;;59.40;7.70;;;9.30;99.90;;;;;;4997108;28;20477;-60
2022/09/30 07:54:27;;;;;;;55.20;7.30;;;9.30;99.90;;;;;;5000864;28;20022;-60
2022/09/30 07:56:53;;;;;;;73.53;6.85;;;9.30;99.90;;;;;;4998376;28;20022;-60
2022/09/30 07:59:19;;;;;;;53.85;7.68;;;9.40;99.90;;;;;;4994000;28;20450;-60
2022/09/30 08:01:46;;;;;;;17.52;7.03;;;9.40;99.90;;;;;;4999004;28;20026;-60
2022/09/30 08:04:13;;;;;;;19.35;5.85;;;9.60;99.90;;;;;;4999598;28;20498;-60
2022/09/30 08:06:41;;;;;;;27.30;6.47;;;9.70;99.90;;;;;;4999498;28;20034;-60
2022/09/30 08:09:07;;;;;;;22.10;6.53;;;9.90;99.90;;;;;;4997657;28;20576;-60
2022/09/30 08:11:35;;;;;;;11.63;5.47;;;10.00;99.90;;;;;;4995180;28;20154;-60
2022/09/30 08:14:02;;;;;;;16.33;6.60;;;10.00;99.90;;;;;;4995720;28;20035;-60
2022/09/30 08:16:27;;;;;;;15.40;5.63;;;10.10;99.90;;;;;;4996875;28;20026;-59
2022/09/30 08:19:01;;;;;;;21.30;6.60;;;10.30;99.90;;;;;;5002067;28;20030;-61
2022/09/30 08:21:27;;;;;;;45.67;8.25;;;10.30;99.90;;;;;;4996211;28;20053;-60
2022/09/30 08:23:53;;;;;;;21.00;6.72;;;10.30;99.90;;;;;;4996990;28;20409;-60
2022/09/30 08:26:19;;;;;;;16.48;8.60;;;10.30;99.90;;;;;;4995506;28;20052;-60
2022/09/30 08:28:46;;;;;;;17.65;9.50;;;10.30;99.90;;;;;;4999055;28;20414;-61
2022/09/30 08:31:12;;;;;;;60.45;9.63;;;10.30;99.90;;;;;;4998192;28;20058;-60
2022/09/30 08:33:39;;;;;;;18.98;7.30;;;10.30;99.90;;;;;;4996655;28;20027;-60
2022/09/30 08:36:07;;;;;;;77.63;8.70;;;10.30;99.90;;;;;;5000099;28;20061;-60
2022/09/30 08:38:33;;;;;;;13.88;6.93;;;10.40;99.90;;;;;;4997813;28;20062;-60
2022/09/30 08:41:26;;;;;;;18.17;7.13;;;10.40;99.90;;;;;;4996241;28;20029;-60
2022/09/30 08:44:33;;;;;;;31.30;6.82;;;10.50;99.90;;;;;;4997119;28;20529;-61
2022/09/30 08:47:14;;;;;;;15.60;6.13;;;10.60;99.90;;;;;;4994749;28;20034;-61
2022/09/30 08:50:15;;;;;;;6.70;5.18;;;10.70;99.90;;;;;;4998158;28;20033;-61
2022/09/30 08:53:00;;;;;;;5.35;4.85;;;10.70;99.90;;;;;;4993847;28;20117;-60
2022/09/30 08:55:46;;;;;;;29.30;6.45;;;10.80;99.90;;;;;;4999815;28;20417;-60
2022/09/30 08:58:27;;;;;;;6.15;5.50;;;10.70;99.90;;;;;;4997883;28;20141;-61
2022/09/30 09:00:58;;;;;;;18.83;6.18;;;10.60;99.90;;;;;;4996295;28;20554;-60
2022/09/30 09:03:28;;;;;;;7.85;6.00;;;10.70;99.90;;;;;;5000246;28;20037;-61
2022/09/30 09:06:11;;;;;;;6.07;5.35;;;10.70;99.90;;;;;;4995535;28;20033;-60
2022/09/30 09:09:08;;;;;;;7.55;5.93;;;10.80;99.90;;;;;;4998718;28;20134;-60
2022/09/30 09:11:49;;;;;;;5.68;5.18;;;11.00;99.90;;;;;;4999306;28;20434;-60
2022/09/30 09:14:25;;;;;;;6.10;5.55;;;11.40;99.90;;;;;;4997008;28;20022;-61
2022/09/30 09:17:21;;;;;;;6.05;5.55;;;11.70;99.90;;;;;;4995672;28;20034;-60
2022/09/30 09:19:58;;;;;;;5.15;4.75;;;11.80;99.90;;;;;;4995728;28;20029;-60
2022/09/30 09:22:26;;;;;;;6.50;5.90;;;11.80;99.90;;;;;;4999957;28;20493;-60
2022/09/30 09:24:54;;;;;;;6.32;5.72;;;11.70;99.90;;;;;;4992294;28;20494;-61
2022/09/30 09:28:01;;;;;;;6.20;5.80;;;11.70;99.90;;;;;;4997154;28;20092;-60
2022/09/30 09:30:41;;;;;;;5.70;5.18;;;11.90;99.90;;;;;;4995486;28;20446;-61
2022/09/30 09:33:18;;;;;;;7.22;6.68;;;12.20;99.90;;;;;;4996154;28;20037;-61
2022/09/30 09:35:56;;;;;;;6.68;6.03;;;12.50;99.90;;;;;;4995632;28;20031;-61
2022/09/30 09:38:41;;;;;;;6.45;5.85;;;12.90;99.90;;;;;;4992876;28;20030;-61
2022/09/30 09:41:09;;;;;;;7.78;6.13;;;13.10;99.90;;;;;;4994495;28;20034;-62
2022/09/30 09:44:09;;;;;;;5.47;5.07;;;13.30;99.90;;;;;;4992683;28;20111;-60
2022/09/30 09:46:43;;;;;;;6.38;5.20;;;13.40;99.90;;;;;;4997881;28;20040;-60
2022/09/30 09:49:28;;;;;;;5.45;4.80;;;13.60;99.90;;;;;;4994571;28;20022;-61
2022/09/30 09:52:15;;;;;;;5.13;4.72;;;13.80;99.90;;;;;;4999703;28;20022;-61
2022/09/30 09:54:51;;;;;;;4.35;4.00;;;14.10;99.90;;;;;;4999497;28;20030;-61
2022/09/30 09:57:23;;;;;;;4.38;3.97;;;14.40;99.90;;;;;;4995717;28;20038;-61
2022/09/30 10:03:07;;;;;;;5.07;3.25;;;15.20;99.90;;;;;;5001930;28;20084;-62
2022/09/30 10:05:39;;;;;;;4.78;3.33;;;15.70;99.90;;;;;;4993496;28;20084;-62
2022/09/30 10:08:09;;;;;;;3.35;3.03;;;15.80;99.90;;;;;;4992300;28;20168;-62
2022/09/30 10:10:43;;;;;;;3.08;2.67;;;15.90;99.90;;;;;;5000333;28;20034;-61
2022/09/30 10:13:19;;;;;;;3.10;2.80;;;16.00;99.90;;;;;;4998947;28;20018;-61
2022/09/30 10:15:45;;;;;;;4.00;2.75;;;15.90;99.90;;;;;;4997679;28;20029;-61
2022/09/30 10:18:26;;;;;;;5.03;2.88;;;15.90;99.90;;;;;;4997803;28;20137;-61
2022/09/30 10:21:08;;;;;;;4.37;3.60;;;15.80;99.90;;;;;;4995125;28;20069;-60
2022/09/30 10:23:39;;;;;;;3.63;2.90;;;15.80;99.90;;;;;;4997998;28;20288;-61
2022/09/30 10:26:13;;;;;;;3.47;3.10;;;15.70;99.90;;;;;;4995333;28;20026;-62
2022/09/30 10:28:51;;;;;;;5.55;3.50;;;15.70;99.90;;;;;;4998403;28;20052;-61
2022/09/30 10:31:29;;;;;;;5.90;2.92;;;15.60;99.90;;;;;;4998532;28;20034;-61
2022/09/30 10:34:29;;;;;;;4.90;2.50;;;15.50;99.90;;;;;;5000446;28;20025;-58
2022/09/30 10:36:56;;;;;;;7.50;3.33;;;15.50;99.90;;;;;;5001175;28;20030;-62
2022/09/30 10:39:25;;;;;;;4.80;2.92;;;15.40;99.90;;;;;;4996909;28;20160;-61
2022/09/30 10:42:09;;;;;;;4.30;2.20;;;15.30;99.90;;;;;;4994918;28;20030;-62
2022/09/30 10:44:48;;;;;;;1.90;1.67;;;15.20;99.90;;;;;;4995193;28;20771;-61
2022/09/30 10:47:21;;;;;;;3.25;2.60;;;15.10;99.90;;;;;;4997814;28;20103;-61
2022/09/30 10:49:52;;;;;;;3.63;2.40;;;14.90;99.90;;;;;;4996807;28;20100;-61
2022/09/30 10:52:25;;;;;;;2.70;1.63;;;14.80;99.90;;;;;;4998242;28;20406;-61
2022/09/30 10:54:53;;;;;;;2.30;1.73;;;14.70;99.90;;;;;;4991528;28;20134;-62
2022/09/30 10:57:22;;;;;;;1.98;1.30;;;14.60;99.90;;;;;;4992707;28;20037;-61
2022/09/30 10:59:50;;;;;;;2.58;1.50;;;14.60;99.90;;;;;;4997403;28;20030;-61
2022/09/30 11:02:43;;;;;;;2.33;1.42;;;14.60;99.90;;;;;;4994209;28;20399;-61
2022/09/30 11:05:31;;;;;;;2.08;1.88;;;14.70;99.90;;;;;;4994446;28;20027;-61
2022/09/30 11:08:45;;;;;;;2.85;1.40;;;14.70;99.90;;;;;;4993144;28;20031;-61
2022/09/30 11:11:19;;;;;;;2.00;1.30;;;14.80;99.90;;;;;;4996359;28;20037;-61
2022/09/30 11:14:06;;;;;;;2.58;1.35;;;14.80;99.90;;;;;;5000291;28;20118;-61
2022/09/30 11:16:32;;;;;;;1.35;1.25;;;14.90;99.90;;;;;;5000426;28;20498;-61
2022/09/30 11:19:10;;;;;;;1.85;1.35;;;15.00;99.90;;;;;;4998193;28;20058;-61
2022/09/30 11:21:47;;;;;;;3.35;1.50;;;15.00;99.90;;;;;;5002474;28;20101;-61
2022/09/30 11:24:13;;;;;;;2.20;1.65;;;15.00;99.90;;;;;;4999912;28;20030;-60
2022/09/30 11:27:09;;;;;;;2.40;1.60;;;15.10;99.90;;;;;;5006517;28;20057;-61
2022/09/30 11:29:49;;;;;;;1.65;1.30;;;15.30;99.90;;;;;;5002475;28;20480;-61
2022/09/30 11:32:45;;;;;;;1.35;1.25;;;15.40;99.90;;;;;;4997123;28;20395;-61
2022/09/30 11:35:22;;;;;;;2.15;1.60;;;15.50;99.90;;;;;;4999108;28;20117;-60
2022/09/30 11:38:22;;;;;;;3.60;1.55;;;15.40;99.90;;;;;;5000294;28;20030;-60
2022/09/30 11:41:07;;;;;;;1.83;1.27;;;15.40;99.90;;;;;;4998059;28;20451;-60
2022/09/30 11:43:41;;;;;;;1.50;1.30;;;15.30;99.90;;;;;;4998188;28;20046;-60
2022/09/30 11:46:07;;;;;;;2.70;1.20;;;15.30;99.90;;;;;;4999460;28;20129;-61
2022/09/30 11:48:59;;;;;;;2.83;1.42;;;15.40;99.90;;;;;;4999008;28;20202;-61
2022/09/30 11:51:40;;;;;;;1.60;1.40;;;15.60;99.90;;;;;;4999079;28;20068;-61
2022/09/30 11:54:17;;;;;;;3.08;1.27;;;15.70;99.90;;;;;;5000490;28;20124;-61
2022/09/30 11:56:54;;;;;;;2.53;1.35;;;15.60;99.90;;;;;;4998913;28;20585;-62
2022/09/30 11:59:32;;;;;;;1.67;1.38;;;15.60;99.90;;;;;;4997862;28;20029;-61
2022/09/30 12:02:03;;;;;;;2.17;1.70;;;15.70;99.90;;;;;;5000519;28;20045;-61
2022/09/30 12:04:41;;;;;;;1.52;1.30;;;15.80;99.90;;;;;;4995131;28;20030;-61
2022/09/30 12:07:18;;;;;;;2.65;1.80;;;15.80;99.90;;;;;;4999255;28;20022;-61
2022/09/30 12:09:52;;;;;;;3.97;1.75;;;15.60;99.90;;;;;;5000978;28;20029;-60
2022/09/30 12:12:18;;;;;;;3.13;2.20;;;15.50;99.90;;;;;;4997262;28;20084;-61
2022/09/30 12:14:59;;;;;;;2.60;2.03;;;15.60;99.90;;;;;;5000058;28;20026;-60
2022/09/30 12:17:38;;;;;;;3.03;2.22;;;15.60;99.90;;;;;;4995678;28;20109;-61
2022/09/30 12:20:15;;;;;;;2.75;1.90;;;15.50;99.90;;;;;;5003073;28;20386;-61
2022/09/30 12:22:46;;;;;;;6.05;2.15;;;15.50;99.90;;;;;;5000450;28;20033;-60
2022/09/30 12:25:35;;;;;;;3.08;2.65;;;15.50;99.90;;;;;;5000122;28;20037;-61
2022/09/30 12:31:10;;;;;;;4.75;2.20;;;15.40;99.90;;;;;;4998600;28;20561;-61
2022/09/30 12:34:04;;;;;;;3.33;2.22;;;15.30;99.90;;;;;;5002124;28;20036;-60
2022/09/30 12:37:05;;;;;;;5.60;1.80;;;15.10;99.90;;;;;;5002261;28;20121;-64
2022/09/30 12:39:55;;;;;;;3.67;2.42;;;15.00;99.90;;;;;;5000823;28;20124;-61
2022/09/30 12:42:44;;;;;;;2.50;2.25;;;15.00;99.90;;;;;;5003176;28;20034;-61
2022/09/30 12:45:15;;;;;;;7.97;2.80;;;15.10;99.90;;;;;;4999586;28;21039;-62
2022/09/30 12:47:56;;;;;;;6.53;2.67;;;15.10;99.90;;;;;;4996563;28;20125;-61
2022/09/30 12:50:27;;;;;;;2.97;2.40;;;15.10;99.90;;;;;;4999804;28;20064;-61
2022/09/30 12:52:56;;;;;;;2.67;2.00;;;15.10;99.90;;;;;;4998467;28;20030;-61
2022/09/30 12:55:27;;;;;;;2.90;2.63;;;15.20;99.90;;;;;;4996928;28;20157;-61
2022/09/30 12:57:55;;;;;;;2.88;2.58;;;15.20;99.90;;;;;;4998247;28;20053;-61
2022/09/30 13:00:26;;;;;;;3.10;2.08;;;15.20;99.90;;;;;;5000092;28;20407;-61
2022/09/30 13:03:01;;;;;;;2.45;1.85;;;15.20;99.90;;;;;;5015002;28;20037;-61
2022/09/30 13:06:01;;;;;;;2.28;1.60;;;15.30;99.90;;;;;;4994118;28;20026;-61
2022/09/30 13:08:46;;;;;;;3.20;1.70;;;15.40;99.90;;;;;;4998352;28;20035;-60
2022/09/30 13:11:35;;;;;;;3.30;1.80;;;15.50;99.90;;;;;;4992894;28;20030;-61
2022/09/30 13:14:23;;;;;;;1.90;1.70;;;15.30;99.90;;;;;;4997455;28;20231;-60
2022/09/30 13:17:07;;;;;;;3.28;1.75;;;15.10;99.90;;;;;;4995675;28;20034;-58
2022/09/30 13:19:48;;;;;;;1.80;1.50;;;15.00;99.90;;;;;;4994077;28;20026;-60
2022/09/30 13:22:19;;;;;;;7.38;2.30;;;14.90;99.90;;;;;;4998250;28;20026;-60
2022/09/30 13:25:01;;;;;;;1.70;1.60;;;14.80;99.90;;;;;;4998179;28;20018;-61
2022/09/30 13:27:52;;;;;;;3.85;1.98;;;14.70;99.90;;;;;;4992824;28;20045;-62